sensor_id;sensor_type;location;lat;lon;timestamp;P1;durP1;ratioP1;P2;durP2;ratioP2
27977;SDS011;15314;49.248;6.968;2022-12-29T00:00:44;9.77;;;8.88;;
27977;SDS011;15314;49.248;6.968;2022-12-29T00:01:44;10.02;;;9.20;;
27977;SDS011;15314;49.248;6.968;2022-12-29T00:02:45;9.93;;;9.00;;
27977;SDS011;15314;49.248;6.968;2022-12-29T00:03:46;9.57;;;8.77;;
27977;SDS011;15314;49.248;6.968;2022-12-29T00:04:48;9.90;;;9.15;;
27977;SDS011;15314;49.248;6.968;2022-12-29T00:05:56;10.50;;;9.05;;
27977;SDS011;15314;49.248;6.968;2022-12-29T00:06:58;9.25;;;8.52;;
27977;SDS011;15314;49.248;6.968;2022-12-29T00:07:59;9.48;;;8.82;;
27977;SDS011;15314;49.248;6.968;2022-12-29T00:08:59;9.90;;;8.98;;
27977;SDS011;15314;49.248;6.968;2022-12-29T00:10:00;9.93;;;9.18;;
27977;SDS011;15314;49.248;6.968;2022-12-29T00:11:01;9.48;;;8.60;;
27977;SDS011;15314;49.248;6.968;2022-12-29T00:12:03;9.63;;;9.00;;
27977;SDS011;15314;49.248;6.968;2022-12-29T00:13:04;9.75;;;9.15;;
27977;SDS011;15314;49.248;6.968;2022-12-29T00:14:25;9.15;;;8.50;;
27977;SDS011;15314;49.248;6.968;2022-12-29T00:15:45;10.25;;;9.25;;
27977;SDS011;15314;49.248;6.968;2022-12-29T00:16:45;9.63;;;8.93;;
27977;SDS011;15314;49.248;6.968;2022-12-29T00:17:46;10.05;;;9.15;;
27977;SDS011;15314;49.248;6.968;2022-12-29T00:18:47;9.60;;;8.88;;
27977;SDS011;15314;49.248;6.968;2022-12-29T00:19:48;9.65;;;8.73;;
27977;SDS011;15314;49.248;6.968;2022-12-29T00:21:08;9.60;;;8.93;;
27977;SDS011;15314;49.248;6.968;2022-12-29T00:22:32;9.38;;;8.57;;
27977;SDS011;15314;49.248;6.968;2022-12-29T00:23:51;9.25;;;8.45;;
27977;SDS011;15314;49.248;6.968;2022-12-29T00:25:27;9.68;;;8.68;;
27977;SDS011;15314;49.248;6.968;2022-12-29T00:26:49;9.57;;;8.68;;
27977;SDS011;15314;49.248;6.968;2022-12-29T00:28:21;9.55;;;8.70;;
27977;SDS011;15314;49.248;6.968;2022-12-29T00:29:41;9.15;;;8.32;;
27977;SDS011;15314;49.248;6.968;2022-12-29T00:31:00;8.38;;;7.97;;
27977;SDS011;15314;49.248;6.968;2022-12-29T00:32:20;9.00;;;8.50;;
27977;SDS011;15314;49.248;6.968;2022-12-29T00:33:39;9.95;;;8.60;;
27977;SDS011;15314;49.248;6.968;2022-12-29T00:34:58;8.60;;;8.10;;
27977;SDS011;15314;49.248;6.968;2022-12-29T00:37:17;9.80;;;8.70;;
27977;SDS011;15314;49.248;6.968;2022-12-29T00:38:38;10.38;;;9.10;;
27977;SDS011;15314;49.248;6.968;2022-12-29T00:40:05;9.60;;;8.90;;
27977;SDS011;15314;49.248;6.968;2022-12-29T00:41:25;8.85;;;8.15;;
27977;SDS011;15314;49.248;6.968;2022-12-29T00:42:44;9.07;;;8.35;;
27977;SDS011;15314;49.248;6.968;2022-12-29T00:44:04;8.82;;;8.32;;
27977;SDS011;15314;49.248;6.968;2022-12-29T00:45:06;8.52;;;7.95;;
27977;SDS011;15314;49.248;6.968;2022-12-29T00:46:06;12.93;;;8.23;;
27977;SDS011;15314;49.248;6.968;2022-12-29T00:47:07;9.70;;;8.90;;
27977;SDS011;15314;49.248;6.968;2022-12-29T00:48:08;9.60;;;8.90;;
27977;SDS011;15314;49.248;6.968;2022-12-29T00:49:09;8.98;;;8.13;;
27977;SDS011;15314;49.248;6.968;2022-12-29T00:50:30;9.02;;;8.38;;
27977;SDS011;15314;49.248;6.968;2022-12-29T00:51:31;9.05;;;8.45;;
27977;SDS011;15314;49.248;6.968;2022-12-29T00:52:32;8.75;;;8.25;;
27977;SDS011;15314;49.248;6.968;2022-12-29T00:53:32;8.88;;;8.13;;
27977;SDS011;15314;49.248;6.968;2022-12-29T00:54:34;9.15;;;8.45;;
27977;SDS011;15314;49.248;6.968;2022-12-29T00:55:37;8.13;;;7.53;;
27977;SDS011;15314;49.248;6.968;2022-12-29T00:56:38;8.07;;;7.68;;
27977;SDS011;15314;49.248;6.968;2022-12-29T00:57:39;8.00;;;7.40;;
27977;SDS011;15314;49.248;6.968;2022-12-29T00:58:39;7.95;;;7.40;;
27977;SDS011;15314;49.248;6.968;2022-12-29T00:59:40;8.10;;;7.60;;
27977;SDS011;15314;49.248;6.968;2022-12-29T01:00:42;8.13;;;7.53;;
27977;SDS011;15314;49.248;6.968;2022-12-29T01:01:42;8.73;;;7.38;;
27977;SDS011;15314;49.248;6.968;2022-12-29T01:02:43;7.65;;;7.20;;
27977;SDS011;15314;49.248;6.968;2022-12-29T01:03:43;8.07;;;7.55;;
27977;SDS011;15314;49.248;6.968;2022-12-29T01:04:45;7.45;;;6.93;;
27977;SDS011;15314;49.248;6.968;2022-12-29T01:05:45;7.95;;;7.22;;
27977;SDS011;15314;49.248;6.968;2022-12-29T01:06:46;8.05;;;7.45;;
27977;SDS011;15314;49.248;6.968;2022-12-29T01:07:47;8.07;;;7.50;;
27977;SDS011;15314;49.248;6.968;2022-12-29T01:08:47;8.90;;;8.10;;
27977;SDS011;15314;49.248;6.968;2022-12-29T01:10:08;8.60;;;8.05;;
27977;SDS011;15314;49.248;6.968;2022-12-29T01:11:12;8.25;;;7.65;;
27977;SDS011;15314;49.248;6.968;2022-12-29T01:12:13;9.07;;;7.90;;
27977;SDS011;15314;49.248;6.968;2022-12-29T01:13:14;7.93;;;7.53;;
27977;SDS011;15314;49.248;6.968;2022-12-29T01:14:15;7.55;;;7.10;;
27977;SDS011;15314;49.248;6.968;2022-12-29T01:15:16;8.00;;;7.50;;
27977;SDS011;15314;49.248;6.968;2022-12-29T01:16:17;8.10;;;7.63;;
27977;SDS011;15314;49.248;6.968;2022-12-29T01:17:17;8.30;;;7.80;;
27977;SDS011;15314;49.248;6.968;2022-12-29T01:18:18;7.95;;;7.30;;
27977;SDS011;15314;49.248;6.968;2022-12-29T01:19:19;7.50;;;7.18;;
27977;SDS011;15314;49.248;6.968;2022-12-29T01:20:20;7.82;;;7.32;;
27977;SDS011;15314;49.248;6.968;2022-12-29T01:21:20;8.30;;;7.75;;
27977;SDS011;15314;49.248;6.968;2022-12-29T01:22:21;7.57;;;7.07;;
27977;SDS011;15314;49.248;6.968;2022-12-29T01:23:22;7.25;;;6.95;;
27977;SDS011;15314;49.248;6.968;2022-12-29T01:24:22;7.55;;;7.00;;
27977;SDS011;15314;49.248;6.968;2022-12-29T01:25:25;8.10;;;7.60;;
27977;SDS011;15314;49.248;6.968;2022-12-29T01:26:25;7.85;;;7.25;;
27977;SDS011;15314;49.248;6.968;2022-12-29T01:27:26;7.70;;;7.28;;
27977;SDS011;15314;49.248;6.968;2022-12-29T01:28:27;8.13;;;7.60;;
27977;SDS011;15314;49.248;6.968;2022-12-29T01:29:27;8.40;;;7.80;;
27977;SDS011;15314;49.248;6.968;2022-12-29T01:30:28;8.13;;;7.57;;
27977;SDS011;15314;49.248;6.968;2022-12-29T01:31:29;8.00;;;7.43;;
27977;SDS011;15314;49.248;6.968;2022-12-29T01:32:29;8.95;;;8.27;;
27977;SDS011;15314;49.248;6.968;2022-12-29T01:33:30;8.48;;;7.90;;
27977;SDS011;15314;49.248;6.968;2022-12-29T01:34:30;8.45;;;7.72;;
27977;SDS011;15314;49.248;6.968;2022-12-29T01:35:31;8.02;;;7.63;;
27977;SDS011;15314;49.248;6.968;2022-12-29T01:36:32;8.50;;;8.05;;
27977;SDS011;15314;49.248;6.968;2022-12-29T01:37:33;8.43;;;7.70;;
27977;SDS011;15314;49.248;6.968;2022-12-29T01:38:34;8.43;;;8.00;;
27977;SDS011;15314;49.248;6.968;2022-12-29T01:39:36;8.35;;;7.80;;
27977;SDS011;15314;49.248;6.968;2022-12-29T01:40:42;9.20;;;8.35;;
27977;SDS011;15314;49.248;6.968;2022-12-29T01:41:44;8.65;;;7.95;;
27977;SDS011;15314;49.248;6.968;2022-12-29T01:42:44;8.90;;;8.30;;
27977;SDS011;15314;49.248;6.968;2022-12-29T01:43:49;8.48;;;7.75;;
27977;SDS011;15314;49.248;6.968;2022-12-29T01:45:00;8.73;;;8.20;;
27977;SDS011;15314;49.248;6.968;2022-12-29T01:46:34;8.00;;;7.50;;
27977;SDS011;15314;49.248;6.968;2022-12-29T01:47:41;8.02;;;7.43;;
27977;SDS011;15314;49.248;6.968;2022-12-29T01:48:51;8.80;;;8.25;;
27977;SDS011;15314;49.248;6.968;2022-12-29T01:49:55;8.88;;;8.27;;
27977;SDS011;15314;49.248;6.968;2022-12-29T01:50:58;7.97;;;7.43;;
27977;SDS011;15314;49.248;6.968;2022-12-29T01:52:02;9.70;;;7.90;;
27977;SDS011;15314;49.248;6.968;2022-12-29T01:53:07;8.43;;;7.80;;
27977;SDS011;15314;49.248;6.968;2022-12-29T01:54:12;8.68;;;7.97;;
27977;SDS011;15314;49.248;6.968;2022-12-29T01:55:39;8.77;;;8.27;;
27977;SDS011;15314;49.248;6.968;2022-12-29T01:56:44;8.75;;;8.15;;
27977;SDS011;15314;49.248;6.968;2022-12-29T01:57:46;9.00;;;8.38;;
27977;SDS011;15314;49.248;6.968;2022-12-29T01:58:49;8.35;;;7.82;;
27977;SDS011;15314;49.248;6.968;2022-12-29T02:00:06;8.40;;;7.90;;
27977;SDS011;15314;49.248;6.968;2022-12-29T02:01:09;8.85;;;8.15;;
27977;SDS011;15314;49.248;6.968;2022-12-29T02:02:10;9.23;;;8.45;;
27977;SDS011;15314;49.248;6.968;2022-12-29T02:03:11;8.57;;;7.80;;
27977;SDS011;15314;49.248;6.968;2022-12-29T02:04:13;8.40;;;7.90;;
27977;SDS011;15314;49.248;6.968;2022-12-29T02:05:16;8.80;;;8.10;;
27977;SDS011;15314;49.248;6.968;2022-12-29T02:06:43;9.13;;;8.43;;
27977;SDS011;15314;49.248;6.968;2022-12-29T02:07:50;8.88;;;8.13;;
27977;SDS011;15314;49.248;6.968;2022-12-29T02:08:52;8.85;;;8.15;;
27977;SDS011;15314;49.248;6.968;2022-12-29T02:09:55;8.98;;;8.40;;
27977;SDS011;15314;49.248;6.968;2022-12-29T02:10:56;9.63;;;8.90;;
27977;SDS011;15314;49.248;6.968;2022-12-29T02:12:00;9.20;;;8.23;;
27977;SDS011;15314;49.248;6.968;2022-12-29T02:13:01;9.40;;;8.70;;
27977;SDS011;15314;49.248;6.968;2022-12-29T02:14:07;9.10;;;8.30;;
27977;SDS011;15314;49.248;6.968;2022-12-29T02:15:09;9.00;;;8.35;;
27977;SDS011;15314;49.248;6.968;2022-12-29T02:21:20;9.80;;;8.82;;
27977;SDS011;15314;49.248;6.968;2022-12-29T02:26:58;9.27;;;8.48;;
27977;SDS011;15314;49.248;6.968;2022-12-29T02:29:59;9.32;;;8.73;;
27977;SDS011;15314;49.248;6.968;2022-12-29T02:37:03;9.00;;;8.45;;
27977;SDS011;15314;49.248;6.968;2022-12-29T02:41:32;9.65;;;8.80;;
27977;SDS011;15314;49.248;6.968;2022-12-29T02:43:13;10.13;;;9.27;;
27977;SDS011;15314;49.248;6.968;2022-12-29T02:44:25;10.07;;;9.27;;
27977;SDS011;15314;49.248;6.968;2022-12-29T02:47:05;8.90;;;8.40;;
27977;SDS011;15314;49.248;6.968;2022-12-29T02:48:32;9.70;;;8.90;;
27977;SDS011;15314;49.248;6.968;2022-12-29T02:49:44;10.55;;;9.70;;
27977;SDS011;15314;49.248;6.968;2022-12-29T02:51:01;9.98;;;9.20;;
27977;SDS011;15314;49.248;6.968;2022-12-29T02:53:13;9.82;;;9.13;;
27977;SDS011;15314;49.248;6.968;2022-12-29T02:54:18;10.27;;;9.13;;
27977;SDS011;15314;49.248;6.968;2022-12-29T02:55:37;9.75;;;9.07;;
27977;SDS011;15314;49.248;6.968;2022-12-29T02:56:38;10.10;;;9.27;;
27977;SDS011;15314;49.248;6.968;2022-12-29T02:57:39;10.02;;;9.32;;
27977;SDS011;15314;49.248;6.968;2022-12-29T02:58:40;10.25;;;9.52;;
27977;SDS011;15314;49.248;6.968;2022-12-29T02:59:41;9.45;;;8.85;;
27977;SDS011;15314;49.248;6.968;2022-12-29T03:00:48;10.57;;;9.77;;
27977;SDS011;15314;49.248;6.968;2022-12-29T03:03:48;9.55;;;8.75;;
27977;SDS011;15314;49.248;6.968;2022-12-29T03:05:18;10.02;;;9.32;;
27977;SDS011;15314;49.248;6.968;2022-12-29T03:08:14;10.52;;;9.60;;
27977;SDS011;15314;49.248;6.968;2022-12-29T03:12:05;9.25;;;8.57;;
27977;SDS011;15314;49.248;6.968;2022-12-29T03:13:55;9.98;;;9.05;;
27977;SDS011;15314;49.248;6.968;2022-12-29T03:15:24;8.68;;;8.13;;
27977;SDS011;15314;49.248;6.968;2022-12-29T03:16:53;9.00;;;8.50;;
27977;SDS011;15314;49.248;6.968;2022-12-29T03:18:20;9.82;;;9.23;;
27977;SDS011;15314;49.248;6.968;2022-12-29T03:20:38;9.23;;;8.52;;
27977;SDS011;15314;49.248;6.968;2022-12-29T03:23:14;9.75;;;9.00;;
27977;SDS011;15314;49.248;6.968;2022-12-29T03:24:17;8.82;;;8.15;;
27977;SDS011;15314;49.248;6.968;2022-12-29T03:25:23;8.75;;;8.20;;
27977;SDS011;15314;49.248;6.968;2022-12-29T03:26:28;9.13;;;8.30;;
27977;SDS011;15314;49.248;6.968;2022-12-29T03:27:30;9.18;;;8.48;;
27977;SDS011;15314;49.248;6.968;2022-12-29T03:28:42;8.60;;;8.00;;
27977;SDS011;15314;49.248;6.968;2022-12-29T03:29:54;9.10;;;8.30;;
27977;SDS011;15314;49.248;6.968;2022-12-29T03:30:59;8.95;;;8.35;;
27977;SDS011;15314;49.248;6.968;2022-12-29T03:32:03;8.88;;;8.18;;
27977;SDS011;15314;49.248;6.968;2022-12-29T03:33:10;9.65;;;8.85;;
27977;SDS011;15314;49.248;6.968;2022-12-29T03:34:15;9.65;;;8.90;;
27977;SDS011;15314;49.248;6.968;2022-12-29T03:35:19;8.90;;;8.30;;
27977;SDS011;15314;49.248;6.968;2022-12-29T03:37:46;8.70;;;8.20;;
27977;SDS011;15314;49.248;6.968;2022-12-29T03:38:59;8.82;;;8.30;;
27977;SDS011;15314;49.248;6.968;2022-12-29T03:40:08;10.15;;;8.57;;
27977;SDS011;15314;49.248;6.968;2022-12-29T03:41:10;9.20;;;8.60;;
27977;SDS011;15314;49.248;6.968;2022-12-29T03:42:18;8.93;;;8.43;;
27977;SDS011;15314;49.248;6.968;2022-12-29T03:43:21;9.05;;;8.45;;
27977;SDS011;15314;49.248;6.968;2022-12-29T03:44:30;9.48;;;8.57;;
27977;SDS011;15314;49.248;6.968;2022-12-29T03:45:42;9.70;;;9.05;;
27977;SDS011;15314;49.248;6.968;2022-12-29T03:46:42;9.25;;;8.48;;
27977;SDS011;15314;49.248;6.968;2022-12-29T03:47:43;9.35;;;8.70;;
27977;SDS011;15314;49.248;6.968;2022-12-29T03:48:43;9.25;;;8.65;;
27977;SDS011;15314;49.248;6.968;2022-12-29T03:49:44;9.68;;;8.95;;
27977;SDS011;15314;49.248;6.968;2022-12-29T03:50:45;9.18;;;8.57;;
27977;SDS011;15314;49.248;6.968;2022-12-29T03:51:45;9.20;;;8.60;;
27977;SDS011;15314;49.248;6.968;2022-12-29T03:52:46;9.88;;;9.00;;
27977;SDS011;15314;49.248;6.968;2022-12-29T03:53:47;9.73;;;9.02;;
27977;SDS011;15314;49.248;6.968;2022-12-29T03:54:47;9.52;;;8.75;;
27977;SDS011;15314;49.248;6.968;2022-12-29T03:55:48;10.55;;;9.57;;
27977;SDS011;15314;49.248;6.968;2022-12-29T03:56:49;8.85;;;8.35;;
27977;SDS011;15314;49.248;6.968;2022-12-29T03:57:50;9.38;;;8.65;;
27977;SDS011;15314;49.248;6.968;2022-12-29T03:58:51;9.45;;;8.43;;
27977;SDS011;15314;49.248;6.968;2022-12-29T03:59:51;9.65;;;8.88;;
27977;SDS011;15314;49.248;6.968;2022-12-29T04:00:52;8.27;;;7.68;;
27977;SDS011;15314;49.248;6.968;2022-12-29T04:01:52;7.88;;;7.30;;
27977;SDS011;15314;49.248;6.968;2022-12-29T04:02:53;7.95;;;7.43;;
27977;SDS011;15314;49.248;6.968;2022-12-29T04:03:54;8.25;;;7.55;;
27977;SDS011;15314;49.248;6.968;2022-12-29T04:04:55;7.97;;;7.40;;
27977;SDS011;15314;49.248;6.968;2022-12-29T04:05:56;8.40;;;7.80;;
27977;SDS011;15314;49.248;6.968;2022-12-29T04:06:56;8.10;;;7.53;;
27977;SDS011;15314;49.248;6.968;2022-12-29T04:07:57;8.13;;;7.55;;
27977;SDS011;15314;49.248;6.968;2022-12-29T04:08:57;9.52;;;7.63;;
27977;SDS011;15314;49.248;6.968;2022-12-29T04:09:59;7.90;;;7.50;;
27977;SDS011;15314;49.248;6.968;2022-12-29T04:10:59;7.90;;;7.40;;
27977;SDS011;15314;49.248;6.968;2022-12-29T04:12:00;7.88;;;7.43;;
27977;SDS011;15314;49.248;6.968;2022-12-29T04:13:00;7.85;;;7.45;;
27977;SDS011;15314;49.248;6.968;2022-12-29T04:14:01;7.93;;;7.43;;
27977;SDS011;15314;49.248;6.968;2022-12-29T04:15:02;8.68;;;7.97;;
27977;SDS011;15314;49.248;6.968;2022-12-29T04:16:03;7.75;;;7.13;;
27977;SDS011;15314;49.248;6.968;2022-12-29T04:17:04;8.20;;;7.60;;
27977;SDS011;15314;49.248;6.968;2022-12-29T04:18:04;8.20;;;7.53;;
27977;SDS011;15314;49.248;6.968;2022-12-29T04:19:05;8.60;;;8.00;;
27977;SDS011;15314;49.248;6.968;2022-12-29T04:20:07;8.20;;;7.80;;
27977;SDS011;15314;49.248;6.968;2022-12-29T04:21:27;8.23;;;7.65;;
27977;SDS011;15314;49.248;6.968;2022-12-29T04:22:27;8.45;;;7.80;;
27977;SDS011;15314;49.248;6.968;2022-12-29T04:23:28;8.25;;;7.78;;
27977;SDS011;15314;49.248;6.968;2022-12-29T04:24:30;8.98;;;8.48;;
27977;SDS011;15314;49.248;6.968;2022-12-29T04:25:31;9.23;;;8.43;;
27977;SDS011;15314;49.248;6.968;2022-12-29T04:26:33;8.40;;;7.70;;
27977;SDS011;15314;49.248;6.968;2022-12-29T04:27:33;8.35;;;7.53;;
27977;SDS011;15314;49.248;6.968;2022-12-29T04:28:34;7.80;;;7.28;;
27977;SDS011;15314;49.248;6.968;2022-12-29T04:29:35;8.50;;;7.78;;
27977;SDS011;15314;49.248;6.968;2022-12-29T04:30:36;8.18;;;7.63;;
27977;SDS011;15314;49.248;6.968;2022-12-29T04:31:36;8.00;;;7.40;;
27977;SDS011;15314;49.248;6.968;2022-12-29T04:32:37;8.07;;;7.57;;
27977;SDS011;15314;49.248;6.968;2022-12-29T04:33:38;7.78;;;7.15;;
27977;SDS011;15314;49.248;6.968;2022-12-29T04:34:38;8.13;;;7.30;;
27977;SDS011;15314;49.248;6.968;2022-12-29T04:35:39;8.23;;;7.63;;
27977;SDS011;15314;49.248;6.968;2022-12-29T04:36:40;6.97;;;6.63;;
27977;SDS011;15314;49.248;6.968;2022-12-29T04:37:40;8.55;;;7.88;;
27977;SDS011;15314;49.248;6.968;2022-12-29T04:38:41;8.15;;;7.53;;
27977;SDS011;15314;49.248;6.968;2022-12-29T04:39:42;8.55;;;7.78;;
27977;SDS011;15314;49.248;6.968;2022-12-29T04:40:42;8.52;;;7.82;;
27977;SDS011;15314;49.248;6.968;2022-12-29T04:41:44;8.20;;;7.60;;
27977;SDS011;15314;49.248;6.968;2022-12-29T04:42:44;7.68;;;7.22;;
27977;SDS011;15314;49.248;6.968;2022-12-29T04:43:45;8.02;;;7.55;;
27977;SDS011;15314;49.248;6.968;2022-12-29T04:44:46;7.88;;;7.47;;
27977;SDS011;15314;49.248;6.968;2022-12-29T04:45:46;8.10;;;7.50;;
27977;SDS011;15314;49.248;6.968;2022-12-29T04:46:47;8.73;;;8.23;;
27977;SDS011;15314;49.248;6.968;2022-12-29T04:47:48;9.45;;;8.57;;
27977;SDS011;15314;49.248;6.968;2022-12-29T04:48:49;8.63;;;7.82;;
27977;SDS011;15314;49.248;6.968;2022-12-29T04:49:49;9.07;;;8.35;;
27977;SDS011;15314;49.248;6.968;2022-12-29T04:50:50;8.88;;;8.38;;
27977;SDS011;15314;49.248;6.968;2022-12-29T04:51:51;8.23;;;7.72;;
27977;SDS011;15314;49.248;6.968;2022-12-29T04:52:51;8.55;;;8.05;;
27977;SDS011;15314;49.248;6.968;2022-12-29T04:53:52;8.63;;;7.95;;
27977;SDS011;15314;49.248;6.968;2022-12-29T04:54:52;8.55;;;7.90;;
27977;SDS011;15314;49.248;6.968;2022-12-29T04:55:53;10.13;;;8.32;;
27977;SDS011;15314;49.248;6.968;2022-12-29T04:56:54;8.73;;;8.23;;
27977;SDS011;15314;49.248;6.968;2022-12-29T04:57:54;8.10;;;7.55;;
27977;SDS011;15314;49.248;6.968;2022-12-29T04:58:55;8.52;;;7.78;;
27977;SDS011;15314;49.248;6.968;2022-12-29T04:59:55;8.45;;;8.02;;
27977;SDS011;15314;49.248;6.968;2022-12-29T05:00:56;8.70;;;8.10;;
27977;SDS011;15314;49.248;6.968;2022-12-29T05:01:57;8.85;;;8.13;;
27977;SDS011;15314;49.248;6.968;2022-12-29T05:02:57;8.30;;;7.63;;
27977;SDS011;15314;49.248;6.968;2022-12-29T05:03:58;9.05;;;7.68;;
27977;SDS011;15314;49.248;6.968;2022-12-29T05:04:59;8.57;;;7.88;;
27977;SDS011;15314;49.248;6.968;2022-12-29T05:06:00;8.95;;;8.43;;
27977;SDS011;15314;49.248;6.968;2022-12-29T05:07:00;8.85;;;8.10;;
27977;SDS011;15314;49.248;6.968;2022-12-29T05:08:01;8.90;;;8.20;;
27977;SDS011;15314;49.248;6.968;2022-12-29T05:09:02;8.10;;;7.60;;
27977;SDS011;15314;49.248;6.968;2022-12-29T05:10:03;8.50;;;7.80;;
27977;SDS011;15314;49.248;6.968;2022-12-29T05:11:04;8.48;;;7.72;;
27977;SDS011;15314;49.248;6.968;2022-12-29T05:12:05;8.68;;;8.15;;
27977;SDS011;15314;49.248;6.968;2022-12-29T05:13:06;9.25;;;8.43;;
27977;SDS011;15314;49.248;6.968;2022-12-29T05:14:07;8.23;;;7.72;;
27977;SDS011;15314;49.248;6.968;2022-12-29T05:15:08;8.65;;;8.00;;
27977;SDS011;15314;49.248;6.968;2022-12-29T05:16:10;8.95;;;8.35;;
27977;SDS011;15314;49.248;6.968;2022-12-29T05:17:10;8.90;;;8.13;;
27977;SDS011;15314;49.248;6.968;2022-12-29T05:18:11;9.25;;;8.55;;
27977;SDS011;15314;49.248;6.968;2022-12-29T05:19:11;8.52;;;7.80;;
27977;SDS011;15314;49.248;6.968;2022-12-29T05:20:12;8.25;;;7.57;;
27977;SDS011;15314;49.248;6.968;2022-12-29T05:21:13;9.10;;;8.50;;
27977;SDS011;15314;49.248;6.968;2022-12-29T05:22:13;9.30;;;8.30;;
27977;SDS011;15314;49.248;6.968;2022-12-29T05:23:14;9.05;;;8.30;;
27977;SDS011;15314;49.248;6.968;2022-12-29T05:24:15;9.27;;;8.57;;
27977;SDS011;15314;49.248;6.968;2022-12-29T05:25:16;9.43;;;8.52;;
27977;SDS011;15314;49.248;6.968;2022-12-29T05:26:17;7.80;;;7.40;;
27977;SDS011;15314;49.248;6.968;2022-12-29T05:27:17;8.50;;;7.95;;
27977;SDS011;15314;49.248;6.968;2022-12-29T05:28:18;9.18;;;8.43;;
27977;SDS011;15314;49.248;6.968;2022-12-29T05:29:19;8.63;;;8.02;;
27977;SDS011;15314;49.248;6.968;2022-12-29T05:30:20;9.07;;;8.48;;
27977;SDS011;15314;49.248;6.968;2022-12-29T05:31:20;9.38;;;8.65;;
27977;SDS011;15314;49.248;6.968;2022-12-29T05:32:21;9.70;;;8.88;;
27977;SDS011;15314;49.248;6.968;2022-12-29T05:33:22;9.00;;;8.35;;
27977;SDS011;15314;49.248;6.968;2022-12-29T05:34:22;9.27;;;8.65;;
27977;SDS011;15314;49.248;6.968;2022-12-29T05:35:23;9.50;;;8.85;;
27977;SDS011;15314;49.248;6.968;2022-12-29T05:36:24;9.55;;;8.80;;
27977;SDS011;15314;49.248;6.968;2022-12-29T05:37:24;9.60;;;8.90;;
27977;SDS011;15314;49.248;6.968;2022-12-29T05:38:25;9.30;;;8.60;;
27977;SDS011;15314;49.248;6.968;2022-12-29T05:39:25;9.77;;;9.02;;
27977;SDS011;15314;49.248;6.968;2022-12-29T05:40:26;9.35;;;8.52;;
27977;SDS011;15314;49.248;6.968;2022-12-29T05:41:27;9.30;;;8.70;;
27977;SDS011;15314;49.248;6.968;2022-12-29T05:42:27;10.20;;;9.30;;
27977;SDS011;15314;49.248;6.968;2022-12-29T05:43:28;9.57;;;8.90;;
27977;SDS011;15314;49.248;6.968;2022-12-29T05:44:28;9.10;;;8.50;;
27977;SDS011;15314;49.248;6.968;2022-12-29T05:45:29;9.82;;;8.98;;
27977;SDS011;15314;49.248;6.968;2022-12-29T05:46:30;9.93;;;9.23;;
27977;SDS011;15314;49.248;6.968;2022-12-29T05:47:30;10.25;;;9.40;;
27977;SDS011;15314;49.248;6.968;2022-12-29T05:48:31;9.95;;;9.05;;
27977;SDS011;15314;49.248;6.968;2022-12-29T05:49:32;11.00;;;9.90;;
27977;SDS011;15314;49.248;6.968;2022-12-29T05:50:33;10.68;;;9.30;;
27977;SDS011;15314;49.248;6.968;2022-12-29T05:51:33;10.25;;;9.30;;
27977;SDS011;15314;49.248;6.968;2022-12-29T05:52:34;10.02;;;9.20;;
27977;SDS011;15314;49.248;6.968;2022-12-29T05:53:34;10.45;;;9.57;;
27977;SDS011;15314;49.248;6.968;2022-12-29T05:54:35;9.57;;;8.80;;
27977;SDS011;15314;49.248;6.968;2022-12-29T05:55:39;10.75;;;9.82;;
27977;SDS011;15314;49.248;6.968;2022-12-29T05:56:40;10.82;;;10.02;;
27977;SDS011;15314;49.248;6.968;2022-12-29T05:57:40;10.50;;;9.60;;
27977;SDS011;15314;49.248;6.968;2022-12-29T05:58:41;9.93;;;9.23;;
27977;SDS011;15314;49.248;6.968;2022-12-29T05:59:41;10.60;;;9.70;;
27977;SDS011;15314;49.248;6.968;2022-12-29T06:00:43;10.50;;;9.80;;
27977;SDS011;15314;49.248;6.968;2022-12-29T06:01:43;10.48;;;9.77;;
27977;SDS011;15314;49.248;6.968;2022-12-29T06:02:44;10.20;;;9.55;;
27977;SDS011;15314;49.248;6.968;2022-12-29T06:03:45;15.05;;;9.60;;
27977;SDS011;15314;49.248;6.968;2022-12-29T06:04:45;10.05;;;9.45;;
27977;SDS011;15314;49.248;6.968;2022-12-29T06:05:46;10.63;;;9.93;;
27977;SDS011;15314;49.248;6.968;2022-12-29T06:06:46;10.57;;;9.55;;
27977;SDS011;15314;49.248;6.968;2022-12-29T06:07:47;11.15;;;10.23;;
27977;SDS011;15314;49.248;6.968;2022-12-29T06:08:48;10.05;;;9.45;;
27977;SDS011;15314;49.248;6.968;2022-12-29T06:09:48;10.98;;;10.20;;
27977;SDS011;15314;49.248;6.968;2022-12-29T06:10:49;10.40;;;9.55;;
27977;SDS011;15314;49.248;6.968;2022-12-29T06:11:50;11.55;;;10.50;;
27977;SDS011;15314;49.248;6.968;2022-12-29T06:12:51;10.45;;;9.63;;
27977;SDS011;15314;49.248;6.968;2022-12-29T06:13:51;9.40;;;8.95;;
27977;SDS011;15314;49.248;6.968;2022-12-29T06:14:52;10.77;;;9.93;;
27977;SDS011;15314;49.248;6.968;2022-12-29T06:15:52;11.43;;;10.10;;
27977;SDS011;15314;49.248;6.968;2022-12-29T06:16:53;10.45;;;9.77;;
27977;SDS011;15314;49.248;6.968;2022-12-29T06:17:54;10.55;;;9.65;;
27977;SDS011;15314;49.248;6.968;2022-12-29T06:18:55;10.05;;;9.35;;
27977;SDS011;15314;49.248;6.968;2022-12-29T06:19:55;11.15;;;10.32;;
27977;SDS011;15314;49.248;6.968;2022-12-29T06:21:02;10.35;;;9.65;;
27977;SDS011;15314;49.248;6.968;2022-12-29T06:22:04;10.93;;;10.10;;
27977;SDS011;15314;49.248;6.968;2022-12-29T06:23:05;10.35;;;9.45;;
27977;SDS011;15314;49.248;6.968;2022-12-29T06:24:06;10.40;;;9.70;;
27977;SDS011;15314;49.248;6.968;2022-12-29T06:25:06;10.95;;;9.95;;
27977;SDS011;15314;49.248;6.968;2022-12-29T06:26:08;10.48;;;9.60;;
27977;SDS011;15314;49.248;6.968;2022-12-29T06:27:08;10.70;;;9.82;;
27977;SDS011;15314;49.248;6.968;2022-12-29T06:28:09;10.63;;;9.57;;
27977;SDS011;15314;49.248;6.968;2022-12-29T06:29:10;10.07;;;9.48;;
27977;SDS011;15314;49.248;6.968;2022-12-29T06:30:13;11.65;;;10.60;;
27977;SDS011;15314;49.248;6.968;2022-12-29T06:31:14;10.93;;;10.02;;
27977;SDS011;15314;49.248;6.968;2022-12-29T06:32:15;10.70;;;9.90;;
27977;SDS011;15314;49.248;6.968;2022-12-29T06:33:16;10.80;;;9.93;;
27977;SDS011;15314;49.248;6.968;2022-12-29T06:34:17;10.00;;;9.20;;
27977;SDS011;15314;49.248;6.968;2022-12-29T06:35:17;11.68;;;10.50;;
27977;SDS011;15314;49.248;6.968;2022-12-29T06:36:18;10.68;;;9.98;;
27977;SDS011;15314;49.248;6.968;2022-12-29T06:37:19;10.25;;;9.65;;
27977;SDS011;15314;49.248;6.968;2022-12-29T06:38:20;10.80;;;9.80;;
27977;SDS011;15314;49.248;6.968;2022-12-29T06:39:20;11.50;;;10.07;;
27977;SDS011;15314;49.248;6.968;2022-12-29T06:40:21;11.52;;;10.20;;
27977;SDS011;15314;49.248;6.968;2022-12-29T06:41:23;10.40;;;9.80;;
27977;SDS011;15314;49.248;6.968;2022-12-29T06:42:23;10.55;;;9.80;;
27977;SDS011;15314;49.248;6.968;2022-12-29T06:43:24;12.05;;;10.98;;
27977;SDS011;15314;49.248;6.968;2022-12-29T06:44:24;10.98;;;10.07;;
27977;SDS011;15314;49.248;6.968;2022-12-29T06:45:25;10.52;;;9.70;;
27977;SDS011;15314;49.248;6.968;2022-12-29T06:46:26;10.95;;;10.10;;
27977;SDS011;15314;49.248;6.968;2022-12-29T06:47:26;10.25;;;9.57;;
27977;SDS011;15314;49.248;6.968;2022-12-29T06:48:27;10.35;;;9.55;;
27977;SDS011;15314;49.248;6.968;2022-12-29T06:49:28;11.32;;;10.35;;
27977;SDS011;15314;49.248;6.968;2022-12-29T06:50:28;9.68;;;9.07;;
27977;SDS011;15314;49.248;6.968;2022-12-29T06:51:29;10.80;;;10.05;;
27977;SDS011;15314;49.248;6.968;2022-12-29T06:52:29;11.57;;;10.35;;
27977;SDS011;15314;49.248;6.968;2022-12-29T06:53:30;10.85;;;10.05;;
27977;SDS011;15314;49.248;6.968;2022-12-29T06:54:31;10.63;;;9.80;;
27977;SDS011;15314;49.248;6.968;2022-12-29T06:55:31;11.75;;;10.60;;
27977;SDS011;15314;49.248;6.968;2022-12-29T06:56:32;10.70;;;10.00;;
27977;SDS011;15314;49.248;6.968;2022-12-29T06:57:33;10.63;;;10.00;;
27977;SDS011;15314;49.248;6.968;2022-12-29T06:58:34;10.57;;;9.88;;